createdAt,value
2023-02-12T00:02:56.378Z,103812.81
2023-02-12T00:13:17.740Z,103834.22
2023-02-12T00:23:41.141Z,103835.84
2023-02-12T00:34:02.631Z,103831.31
2023-02-12T00:44:23.993Z,103843.31
2023-02-12T00:54:45.462Z,103849.38
2023-02-12T01:05:07.030Z,103857.16
2023-02-12T01:15:28.454Z,103872.59
2023-02-12T01:25:49.898Z,103877.84
2023-02-12T01:36:11.339Z,103877.66
2023-02-12T01:46:32.847Z,103870.84
2023-02-12T01:56:54.549Z,103864.00
2023-02-12T02:07:16.371Z,103861.06
2023-02-12T02:17:52.927Z,103851.50
2023-02-12T02:28:33.497Z,103855.47
2023-02-12T02:39:05.280Z,103848.69
2023-02-12T02:49:33.775Z,103837.50
2023-02-12T02:59:58.311Z,103852.00
2023-02-12T03:10:22.909Z,103852.97
2023-02-12T03:20:53.114Z,103844.41
2023-02-12T03:31:29.914Z,103839.34
2023-02-12T03:42:13.595Z,103845.38
2023-02-12T03:52:35.135Z,103846.16
2023-02-12T04:02:56.751Z,103852.16
2023-02-12T04:13:28.661Z,103853.81
2023-02-12T04:23:53.758Z,103852.03
2023-02-12T04:34:26.665Z,103861.53
2023-02-12T04:44:48.116Z,103871.94
2023-02-12T04:55:09.496Z,103875.34
2023-02-12T05:05:30.890Z,103871.84
2023-02-12T05:15:52.242Z,103880.41
2023-02-12T05:26:14.886Z,103875.34
2023-02-12T05:36:36.265Z,103877.91
2023-02-12T05:46:57.633Z,103869.94
2023-02-12T05:57:19.066Z,103886.19
2023-02-12T06:07:40.461Z,103887.97
2023-02-12T06:18:01.851Z,103886.13
2023-02-12T06:28:23.421Z,103897.22
2023-02-12T06:38:44.928Z,103924.84
2023-02-12T06:49:06.309Z,103931.69
2023-02-12T06:59:27.704Z,103942.13
2023-02-12T07:09:49.093Z,103948.97
2023-02-12T07:20:10.677Z,103961.00
2023-02-12T07:30:32.039Z,103969.56
2023-02-12T07:40:53.600Z,103980.88
2023-02-12T07:51:16.147Z,103997.19
2023-02-12T08:01:42.638Z,103997.28
2023-02-12T08:12:04.117Z,104000.06
2023-02-12T08:22:25.567Z,104005.50
2023-02-12T08:32:49.078Z,104010.72
2023-02-12T08:43:10.531Z,104007.44
2023-02-12T08:53:31.989Z,104014.38
2023-02-12T09:03:53.722Z,104021.53
2023-02-12T09:14:15.993Z,104022.41
2023-02-12T09:24:37.494Z,104033.59
2023-02-12T09:34:58.880Z,104037.31
2023-02-12T09:45:21.554Z,104040.66
2023-02-12T09:55:43.424Z,104053.84
2023-02-12T10:06:06.634Z,104055.69
2023-02-12T10:16:36.057Z,104069.50
2023-02-12T10:27:02.522Z,104084.00
2023-02-12T10:37:26.981Z,104074.47
2023-02-12T10:47:51.502Z,104075.13
2023-02-12T10:58:23.091Z,104072.63
2023-02-12T11:08:44.889Z,104070.00
2023-02-12T11:19:20.661Z,104059.84
2023-02-12T11:29:42.836Z,104059.41
2023-02-12T11:40:04.567Z,104046.09
2023-02-12T11:50:30.698Z,104035.91
2023-02-12T12:00:55.533Z,104030.72
2023-02-12T12:11:22.556Z,104031.13
2023-02-12T12:21:54.375Z,104030.19
2023-02-12T12:32:16.846Z,104019.13
2023-02-12T12:42:38.249Z,104019.94
2023-02-12T12:53:10.342Z,104008.13
2023-02-12T13:03:34.965Z,103997.81
2023-02-12T13:14:19.647Z,103981.84
2023-02-12T13:24:47.463Z,103979.66
2023-02-12T13:35:14.673Z,103968.72
2023-02-12T13:45:51.391Z,103968.53
2023-02-12T13:56:33.060Z,103970.50
2023-02-12T14:06:58.687Z,103969.69
2023-02-12T14:17:33.354Z,103973.06
2023-02-12T14:27:57.593Z,103964.53
2023-02-12T14:38:19.082Z,103969.75
2023-02-12T14:49:06.072Z,103973.03
2023-02-12T14:59:28.798Z,103972.25
2023-02-12T15:10:09.912Z,103969.69
2023-02-12T15:20:34.795Z,103965.44
2023-02-12T15:30:56.637Z,103967.09
2023-02-12T15:41:28.983Z,103964.53
2023-02-12T15:51:50.779Z,103961.09
2023-02-12T16:02:21.178Z,103957.75
2023-02-12T16:12:42.650Z,103962.13
2023-02-12T16:23:05.595Z,103957.84
2023-02-12T16:33:34.098Z,103958.63
2023-02-12T16:44:01.613Z,103955.16
2023-02-12T16:54:29.261Z,103976.69
2023-02-12T17:04:50.711Z,103980.00
2023-02-12T17:15:17.184Z,103998.69
2023-02-12T17:25:38.595Z,104012.16
2023-02-12T17:36:00.460Z,104014.50
2023-02-12T17:46:23.282Z,104025.47
2023-02-12T17:56:44.665Z,104029.94
2023-02-12T18:07:08.009Z,104021.28
2023-02-12T18:17:29.577Z,104032.34
2023-02-12T18:27:50.943Z,104033.22
2023-02-12T18:38:12.331Z,104026.41
2023-02-12T18:48:33.723Z,104031.72
2023-02-12T18:58:58.946Z,104024.81
2023-02-12T19:09:21.635Z,104022.16
2023-02-12T19:19:43.241Z,104037.34
2023-02-12T19:30:05.377Z,104036.97
2023-02-12T19:40:26.741Z,104028.38
2023-02-12T19:50:48.103Z,104026.63
2023-02-12T20:01:11.403Z,104035.16
2023-02-12T20:11:37.656Z,104046.16
2023-02-12T20:22:01.425Z,104041.63
2023-02-12T20:32:22.824Z,104050.34
2023-02-12T20:42:44.227Z,104048.59
2023-02-12T20:53:06.115Z,104044.28
2023-02-12T21:03:27.507Z,104041.53
2023-02-12T21:13:59.029Z,104043.19
2023-02-12T21:24:25.364Z,104044.91
2023-02-12T21:34:48.811Z,104030.75
2023-02-12T21:45:10.259Z,104035.19
2023-02-12T21:55:31.642Z,104016.25
2023-02-12T22:05:53.007Z,104010.28
2023-02-12T22:16:24.579Z,104008.53
2023-02-12T22:26:46.110Z,103993.91
2023-02-12T22:37:07.482Z,104008.44
2023-02-12T22:47:32.007Z,104016.94
2023-02-12T22:57:53.350Z,104008.44
2023-02-12T23:08:14.746Z,104025.69
2023-02-12T23:18:36.160Z,104016.38
2023-02-12T23:28:58.095Z,104011.94
2023-02-12T23:39:19.522Z,104010.09
2023-02-12T23:49:40.986Z,104009.09
